Time;durP1;ratioP1;P1;durP2;ratioP2;P2;SDS_P1;SDS_P2;PMS_P1;PMS_P2;Temp;Humidity;BMP_temperature;BMP_pressure;BME280_temperature;BME280_humidity;BME280_pressure;Samples;Min_cycle;Max_cycle;Signal;HPM_P1;HPM_P2
2023/05/28 00:00:56;;;;;;;10.45;4.45;;;;;;;;;;5052755;28;20025;-45
2023/05/28 00:03:25;;;;;;;14.32;4.28;;;;;;;;;;5052749;28;20060;-46
2023/05/28 00:05:52;;;;;;;9.13;4.43;;;;;;;;;;5052489;28;20029;-46
2023/05/28 00:08:20;;;;;;;8.15;4.22;;;;;;;;;;5052591;28;20487;-44
2023/05/28 00:10:47;;;;;;;9.25;4.13;;;;;;;;;;5052402;28;20479;-45
2023/05/28 00:13:14;;;;;;;12.82;4.65;;;;;;;;;;5052541;28;20036;-44
2023/05/28 00:15:41;;;;;;;8.25;4.30;;;;;;;;;;5052398;28;20422;-45
2023/05/28 00:18:11;;;;;;;15.68;4.82;;;;;;;;;;5052423;28;20033;-46
2023/05/28 00:20:41;;;;;;;16.02;5.03;;;;;;;;;;5052326;28;20399;-45
2023/05/28 00:23:08;;;;;;;15.75;5.35;;;;;;;;;;5052360;28;20029;-47
2023/05/28 00:25:35;;;;;;;12.23;4.90;;;;;;;;;;5052295;28;20032;-45
2023/05/28 00:28:02;;;;;;;10.35;4.47;;;;;;;;;;5052178;28;20044;-44
2023/05/28 00:30:29;;;;;;;12.98;5.47;;;;;;;;;;5052181;28;20021;-43
2023/05/28 00:32:56;;;;;;;12.98;5.18;;;;;;;;;;5051748;28;20534;-44
2023/05/28 00:35:25;;;;;;;16.50;5.18;;;;;;;;;;5051792;28;20024;-47
2023/05/28 00:37:54;;;;;;;14.75;5.68;;;;;;;;;;5052299;28;20497;-49
2023/05/28 00:40:21;;;;;;;13.23;5.47;;;;;;;;;;5052028;28;20059;-44
2023/05/28 00:42:48;;;;;;;10.48;5.57;;;;;;;;;;5052024;28;20036;-45
2023/05/28 00:45:15;;;;;;;10.73;5.43;;;;;;;;;;5051949;28;20036;-45
2023/05/28 00:47:42;;;;;;;15.82;6.00;;;;;;;;;;5051789;28;20041;-45
2023/05/28 00:50:10;;;;;;;13.68;5.97;;;;;;;;;;5051597;28;20053;-45
2023/05/28 00:52:37;;;;;;;14.82;6.45;;;;;;;;;;5051806;28;20390;-44
2023/05/28 00:55:07;;;;;;;16.35;6.50;;;;;;;;;;5051817;28;20040;-45
2023/05/28 00:57:36;;;;;;;12.45;6.28;;;;;;;;;;5051666;28;20029;-46
2023/05/28 01:00:03;;;;;;;12.27;6.53;;;;;;;;;;5051659;28;20542;-45
2023/05/28 01:02:30;;;;;;;13.75;6.80;;;;;;;;;;5067123;28;20406;-45
2023/05/28 01:04:57;;;;;;;12.00;6.53;;;;;;;;;;5051697;28;20039;-46
2023/05/28 01:07:24;;;;;;;14.63;6.95;;;;;;;;;;5051475;28;20121;-44
2023/05/28 01:09:51;;;;;;;16.70;7.72;;;;;;;;;;5051622;28;20021;-47
2023/05/28 01:12:19;;;;;;;13.35;7.10;;;;;;;;;;5051551;28;20029;-44
2023/05/28 01:14:46;;;;;;;11.48;6.93;;;;;;;;;;5051641;28;20059;-46
2023/05/28 01:17:14;;;;;;;13.35;7.35;;;;;;;;;;5051490;28;20033;-44
2023/05/28 01:19:42;;;;;;;13.52;7.15;;;;;;;;;;5051440;28;20056;-46
2023/05/28 01:22:09;;;;;;;16.77;8.93;;;;;;;;;;5051551;28;20031;-44
2023/05/28 01:24:36;;;;;;;11.05;7.38;;;;;;;;;;5051533;28;20050;-45
2023/05/28 01:27:04;;;;;;;11.63;7.82;;;;;;;;;;5051357;28;20045;-45
2023/05/28 01:29:31;;;;;;;14.80;8.65;;;;;;;;;;5051381;28;20044;-45
2023/05/28 01:31:58;;;;;;;13.70;8.20;;;;;;;;;;5051467;28;20036;-45
2023/05/28 01:34:25;;;;;;;14.43;8.15;;;;;;;;;;5051467;28;20075;-48
2023/05/28 01:37:07;;;;;;;14.20;8.32;;;;;;;;;;5051319;28;20044;-46
2023/05/28 01:39:35;;;;;;;;;;;;;;;;;;5051856;28;20029;-45
2023/05/28 01:42:04;;;;;;;13.60;8.07;;;;;;;;;;5051198;28;20286;-45
2023/05/28 01:44:31;;;;;;;12.65;8.23;;;;;;;;;;5051596;28;20048;-46
2023/05/28 01:46:59;;;;;;;14.63;8.65;;;;;;;;;;5055101;28;20044;-47
2023/05/28 01:49:26;;;;;;;14.52;9.00;;;;;;;;;;5055110;28;20047;-44
2023/05/28 01:51:53;;;;;;;13.88;9.02;;;;;;;;;;5055203;28;20032;-45
2023/05/28 01:54:20;;;;;;;15.75;9.40;;;;;;;;;;5055185;28;20028;-45
2023/05/28 01:56:47;;;;;;;13.52;8.82;;;;;;;;;;5055076;28;20039;-46
2023/05/28 01:59:14;;;;;;;14.02;8.93;;;;;;;;;;5055048;28;20032;-44
2023/05/28 02:01:41;;;;;;;14.80;9.50;;;;;;;;;;5055093;28;20056;-45
2023/05/28 02:04:08;;;;;;;15.52;9.50;;;;;;;;;;5054989;28;20502;-44
2023/05/28 02:06:36;;;;;;;14.07;9.57;;;;;;;;;;5054795;28;20037;-44
2023/05/28 02:09:03;;;;;;;16.52;10.13;;;;;;;;;;5054921;28;20025;-46
2023/05/28 02:11:30;;;;;;;18.15;10.05;;;;;;;;;;5054889;28;20021;-46
2023/05/28 02:13:58;;;;;;;16.27;10.18;;;;;;;;;;5054882;28;20055;-45
2023/05/28 02:16:27;;;;;;;14.10;9.45;;;;;;;;;;5054622;28;20041;-45
2023/05/28 02:18:54;;;;;;;16.63;10.85;;;;;;;;;;5054767;28;20044;-48
2023/05/28 02:21:21;;;;;;;14.95;9.85;;;;;;;;;;5054652;28;20039;-45
2023/05/28 02:23:49;;;;;;;16.10;10.52;;;;;;;;;;5054536;28;20029;-44
2023/05/28 02:26:17;;;;;;;17.95;11.02;;;;;;;;;;5054330;28;20400;-44
2023/05/28 02:28:45;;;;;;;16.05;10.77;;;;;;;;;;5054585;28;20033;-49
2023/05/28 02:31:12;;;;;;;14.48;10.45;;;;;;;;;;5054394;28;20029;-45
2023/05/28 02:33:40;;;;;;;15.32;10.60;;;;;;;;;;5054465;28;20064;-45
2023/05/28 02:36:07;;;;;;;18.25;10.77;;;;;;;;;;5054619;28;20388;-46
2023/05/28 02:38:34;;;;;;;15.20;10.38;;;;;;;;;;5054407;28;20059;-45
2023/05/28 02:41:01;;;;;;;14.60;10.65;;;;;;;;;;5054249;28;20029;-46
2023/05/28 02:43:28;;;;;;;17.90;11.13;;;;;;;;;;5054295;28;20490;-46
2023/05/28 02:45:55;;;;;;;16.33;11.48;;;;;;;;;;5054117;28;20043;-49
2023/05/28 02:48:22;;;;;;;15.80;11.43;;;;;;;;;;5054044;28;20025;-46
2023/05/28 02:50:49;;;;;;;19.13;12.20;;;;;;;;;;5054197;28;20045;-45
2023/05/28 02:53:18;;;;;;;18.30;12.00;;;;;;;;;;5053614;28;20033;-44
2023/05/28 02:55:45;;;;;;;16.52;11.50;;;;;;;;;;5057905;28;20487;-45
2023/05/28 02:58:13;;;;;;;19.08;10.95;;;;;;;;;;5073113;28;20055;-45
2023/05/28 03:00:41;;;;;;;20.92;12.57;;;;;;;;;;5073365;28;20033;-46
2023/05/28 03:03:08;;;;;;;20.10;12.30;;;;;;;;;;5070713;28;20032;-45
2023/05/28 03:05:36;;;;;;;24.02;12.23;;;;;;;;;;5069028;28;20067;-44
2023/05/28 03:08:03;;;;;;;23.52;12.20;;;;;;;;;;5072221;28;20397;-44
2023/05/28 03:10:30;;;;;;;28.98;13.43;;;;;;;;;;5058076;28;20134;-45
2023/05/28 03:12:57;;;;;;;29.45;13.35;;;;;;;;;;5052037;28;20538;-45
2023/05/28 03:15:27;;;;;;;29.35;13.55;;;;;;;;;;5052109;28;20379;-44
2023/05/28 03:17:54;;;;;;;33.35;13.75;;;;;;;;;;5049352;28;20387;-44
2023/05/28 03:20:23;;;;;;;33.28;13.52;;;;;;;;;;5052564;28;20024;-47
2023/05/28 03:22:56;;;;;;;27.70;13.90;;;;;;;;;;5058267;28;20041;-47
2023/05/28 03:25:24;;;;;;;27.05;14.25;;;;;;;;;;5035108;28;20029;-46
2023/05/28 03:27:52;;;;;;;25.58;13.00;;;;;;;;;;5045287;28;20391;-46
2023/05/28 03:30:21;;;;;;;34.72;13.25;;;;;;;;;;5044225;28;20483;-49
2023/05/28 03:32:49;;;;;;;31.65;13.30;;;;;;;;;;5041251;28;20041;-47
2023/05/28 03:35:16;;;;;;;26.38;14.07;;;;;;;;;;5028460;28;20033;-49
2023/05/28 03:37:43;;;;;;;27.08;13.77;;;;;;;;;;5044094;28;20155;-45
2023/05/28 03:40:10;;;;;;;26.05;13.95;;;;;;;;;;5052442;28;20033;-45
2023/05/28 03:42:38;;;;;;;38.80;15.15;;;;;;;;;;5052809;28;20025;-45
2023/05/28 03:45:06;;;;;;;33.40;15.30;;;;;;;;;;5052477;28;20029;-52
2023/05/28 03:47:34;;;;;;;38.22;15.70;;;;;;;;;;5052331;28;20052;-45
2023/05/28 03:50:01;;;;;;;34.42;15.73;;;;;;;;;;5030880;28;20507;-45
2023/05/28 03:52:28;;;;;;;38.15;15.65;;;;;;;;;;5031179;28;20033;-46
2023/05/28 03:54:55;;;;;;;34.03;16.73;;;;;;;;;;5032465;28;20112;-45
2023/05/28 03:57:22;;;;;;;32.60;16.20;;;;;;;;;;5032141;28;20036;-44
2023/05/28 03:59:49;;;;;;;35.42;15.52;;;;;;;;;;5032414;28;20163;-44
2023/05/28 04:02:17;;;;;;;30.67;15.70;;;;;;;;;;5031832;28;20025;-48
2023/05/28 04:04:45;;;;;;;38.42;16.58;;;;;;;;;;5030500;28;20045;-43
2023/05/28 04:07:12;;;;;;;36.72;16.02;;;;;;;;;;5031156;28;20403;-49
2023/05/28 04:09:40;;;;;;;35.47;16.08;;;;;;;;;;5031571;28;20025;-44
2023/05/28 04:12:08;;;;;;;44.22;16.25;;;;;;;;;;5032514;28;20040;-44
2023/05/28 04:14:35;;;;;;;31.77;15.60;;;;;;;;;;5032348;28;20032;-47
2023/05/28 04:17:03;;;;;;;37.38;16.30;;;;;;;;;;5031733;28;20100;-46
2023/05/28 04:19:30;;;;;;;29.90;15.65;;;;;;;;;;5031934;28;20033;-47
2023/05/28 04:21:57;;;;;;;33.17;15.50;;;;;;;;;;5032310;28;20033;-50
2023/05/28 04:24:24;;;;;;;34.53;15.32;;;;;;;;;;5032298;28;20025;-46
2023/05/28 04:26:51;;;;;;;31.98;15.65;;;;;;;;;;5031975;28;20038;-44
2023/05/28 04:29:18;;;;;;;29.35;15.15;;;;;;;;;;5032188;28;20041;-47
2023/05/28 04:31:47;;;;;;;29.00;15.07;;;;;;;;;;5032298;28;20079;-44
2023/05/28 04:34:16;;;;;;;32.17;15.93;;;;;;;;;;5032377;28;20091;-45
2023/05/28 04:36:44;;;;;;;27.92;15.55;;;;;;;;;;5032030;28;20041;-45
2023/05/28 04:39:11;;;;;;;31.73;15.07;;;;;;;;;;5032024;28;20059;-47
2023/05/28 04:41:38;;;;;;;28.20;14.85;;;;;;;;;;5032009;28;20361;-44
2023/05/28 04:44:05;;;;;;;28.45;15.18;;;;;;;;;;5032029;28;20033;-44
2023/05/28 04:46:33;;;;;;;28.25;15.00;;;;;;;;;;5031883;28;20049;-45
2023/05/28 04:49:00;;;;;;;27.33;14.88;;;;;;;;;;5036530;28;20059;-44
2023/05/28 04:51:27;;;;;;;25.65;14.63;;;;;;;;;;5051739;28;20021;-45
2023/05/28 04:53:55;;;;;;;27.20;14.93;;;;;;;;;;5051910;28;20062;-45
2023/05/28 04:56:22;;;;;;;28.02;14.65;;;;;;;;;;5051731;28;20469;-44
2023/05/28 04:58:49;;;;;;;25.48;14.23;;;;;;;;;;5051760;28;20096;-45
2023/05/28 05:01:16;;;;;;;25.00;13.98;;;;;;;;;;5051780;28;20514;-44
2023/05/28 05:03:43;;;;;;;26.80;14.77;;;;;;;;;;5051696;28;20028;-44
2023/05/28 05:06:11;;;;;;;27.38;14.40;;;;;;;;;;5051541;28;20111;-44
2023/05/28 05:08:38;;;;;;;24.40;13.50;;;;;;;;;;5051311;28;20033;-44
2023/05/28 05:11:06;;;;;;;22.48;13.57;;;;;;;;;;5051637;28;20129;-44
2023/05/28 05:13:33;;;;;;;22.85;14.27;;;;;;;;;;5051591;28;20112;-45
2023/05/28 05:16:00;;;;;;;25.10;13.95;;;;;;;;;;5051158;28;20035;-44
2023/05/28 05:18:27;;;;;;;25.40;13.60;;;;;;;;;;5051568;28;20382;-44
2023/05/28 05:20:55;;;;;;;21.13;13.43;;;;;;;;;;5050962;28;20490;-45
2023/05/28 05:23:22;;;;;;;25.98;13.75;;;;;;;;;;5051312;28;20037;-44
2023/05/28 05:25:49;;;;;;;22.10;12.80;;;;;;;;;;5051334;28;20041;-44
2023/05/28 05:28:16;;;;;;;22.45;13.07;;;;;;;;;;5033310;28;20399;-48
2023/05/28 05:30:43;;;;;;;23.83;12.52;;;;;;;;;;5051473;28;20508;-44
2023/05/28 05:33:10;;;;;;;21.80;13.23;;;;;;;;;;5051414;28;20065;-44
2023/05/28 05:35:37;;;;;;;20.27;13.07;;;;;;;;;;5051342;28;20041;-43
2023/05/28 05:38:05;;;;;;;19.38;12.00;;;;;;;;;;5051345;28;20075;-45
2023/05/28 05:40:32;;;;;;;22.80;12.57;;;;;;;;;;5051169;28;20116;-45
2023/05/28 05:42:59;;;;;;;25.90;12.18;;;;;;;;;;5051309;28;20037;-44
2023/05/28 05:45:26;;;;;;;20.73;12.13;;;;;;;;;;5051180;28;20446;-44
2023/05/28 05:47:53;;;;;;;20.08;11.88;;;;;;;;;;5051174;28;20073;-44
2023/05/28 05:50:20;;;;;;;18.17;12.02;;;;;;;;;;5051008;28;20041;-44
2023/05/28 05:52:47;;;;;;;19.25;11.98;;;;;;;;;;5051141;28;20041;-44
2023/05/28 05:55:14;;;;;;;19.30;11.73;;;;;;;;;;5051313;28;20048;-50
2023/05/28 05:57:41;;;;;;;20.50;12.10;;;;;;;;;;5051129;28;20112;-44
2023/05/28 06:00:10;;;;;;;18.60;11.90;;;;;;;;;;5051057;28;20055;-44
2023/05/28 06:02:37;;;;;;;18.33;12.00;;;;;;;;;;5049656;28;20036;-48
2023/05/28 06:05:05;;;;;;;21.55;12.02;;;;;;;;;;5051027;28;20116;-45
2023/05/28 06:07:32;;;;;;;16.90;11.77;;;;;;;;;;5050850;28;20037;-45
2023/05/28 06:09:59;;;;;;;18.35;11.80;;;;;;;;;;5051038;28;20063;-44
2023/05/28 06:12:27;;;;;;;18.75;11.63;;;;;;;;;;5051033;28;20048;-44
2023/05/28 06:14:55;;;;;;;20.55;11.68;;;;;;;;;;5050853;28;20040;-46
2023/05/28 06:17:22;;;;;;;20.27;12.30;;;;;;;;;;5050735;28;20064;-44
2023/05/28 06:19:49;;;;;;;17.92;11.95;;;;;;;;;;5050864;28;20028;-44
2023/05/28 06:22:16;;;;;;;18.50;11.80;;;;;;;;;;5051114;28;20037;-45
2023/05/28 06:24:44;;;;;;;17.75;11.85;;;;;;;;;;5050984;28;20029;-44
2023/05/28 06:27:11;;;;;;;19.17;11.80;;;;;;;;;;5050707;28;20037;-45
2023/05/28 06:29:38;;;;;;;17.30;11.70;;;;;;;;;;5050559;28;20040;-44
2023/05/28 06:32:05;;;;;;;21.55;11.35;;;;;;;;;;5051956;28;20088;-45
2023/05/28 06:34:32;;;;;;;17.15;11.65;;;;;;;;;;5054454;28;20052;-44
2023/05/28 06:36:59;;;;;;;17.15;11.60;;;;;;;;;;5054344;28;20040;-45
2023/05/28 06:39:26;;;;;;;18.15;11.63;;;;;;;;;;5054311;28;20067;-44
2023/05/28 06:41:53;;;;;;;15.20;10.90;;;;;;;;;;5054341;28;20021;-44
2023/05/28 06:44:20;;;;;;;18.08;11.48;;;;;;;;;;5054282;28;20086;-46
2023/05/28 06:46:47;;;;;;;16.27;11.02;;;;;;;;;;5054335;28;20367;-45
2023/05/28 06:49:14;;;;;;;20.58;12.48;;;;;;;;;;5053870;28;20045;-44
2023/05/28 06:51:41;;;;;;;18.48;11.55;;;;;;;;;;5054126;28;20021;-44
2023/05/28 06:54:09;;;;;;;16.98;12.05;;;;;;;;;;5054107;28;20047;-44
2023/05/28 06:56:36;;;;;;;17.90;11.98;;;;;;;;;;5053859;28;20040;-45
2023/05/28 06:59:02;;;;;;;16.17;11.50;;;;;;;;;;5054034;28;20025;-45
2023/05/28 07:01:29;;;;;;;15.85;11.18;;;;;;;;;;5053918;28;20017;-43
2023/05/28 07:03:56;;;;;;;16.60;11.38;;;;;;;;;;5053857;28;20033;-44
2023/05/28 07:06:23;;;;;;;16.10;11.35;;;;;;;;;;5053726;28;20065;-46
2023/05/28 07:08:50;;;;;;;20.85;11.82;;;;;;;;;;5053759;28;20801;-44
2023/05/28 07:11:17;;;;;;;17.15;11.48;;;;;;;;;;5053548;28;20036;-44
2023/05/28 07:13:46;;;;;;;20.60;12.43;;;;;;;;;;5053703;28;20039;-44
2023/05/28 07:16:14;;;;;;;18.10;12.02;;;;;;;;;;5053517;28;20071;-44
2023/05/28 07:18:41;;;;;;;16.48;11.63;;;;;;;;;;5053519;28;20064;-45
2023/05/28 07:21:08;;;;;;;16.52;11.45;;;;;;;;;;5053620;28;20034;-44
2023/05/28 07:23:35;;;;;;;15.30;11.57;;;;;;;;;;5053559;28;20025;-44
2023/05/28 07:26:02;;;;;;;18.40;11.90;;;;;;;;;;5053367;28;20075;-45
2023/05/28 07:28:29;;;;;;;17.95;10.85;;;;;;;;;;5053415;28;20037;-45
2023/05/28 07:30:56;;;;;;;16.58;11.07;;;;;;;;;;5053271;28;20553;-43
2023/05/28 07:33:23;;;;;;;17.95;11.30;;;;;;;;;;5053367;28;20047;-44
2023/05/28 07:35:50;;;;;;;15.43;10.77;;;;;;;;;;5053205;28;20033;-44
2023/05/28 07:38:17;;;;;;;19.48;12.02;;;;;;;;;;5053222;28;20124;-44
2023/05/28 07:40:45;;;;;;;16.45;10.95;;;;;;;;;;5053227;28;20527;-45
2023/05/28 07:43:12;;;;;;;15.40;10.43;;;;;;;;;;5052501;28;20033;-44
2023/05/28 07:45:39;;;;;;;16.33;11.35;;;;;;;;;;5052907;28;20021;-44
2023/05/28 07:48:06;;;;;;;16.95;11.15;;;;;;;;;;5052996;28;20545;-44
2023/05/28 07:50:33;;;;;;;15.73;11.25;;;;;;;;;;5052854;28;20053;-44
2023/05/28 07:53:03;;;;;;;15.48;11.00;;;;;;;;;;5052874;28;20048;-44
2023/05/28 07:55:30;;;;;;;16.10;10.60;;;;;;;;;;5052814;28;20056;-45
2023/05/28 07:57:58;;;;;;;15.57;10.40;;;;;;;;;;5052823;28;20107;-43
2023/05/28 08:00:26;;;;;;;15.57;10.60;;;;;;;;;;5052696;28;20036;-44
2023/05/28 08:02:53;;;;;;;15.45;10.98;;;;;;;;;;5052737;28;20029;-45
2023/05/28 08:05:20;;;;;;;14.60;10.48;;;;;;;;;;5052518;28;20486;-45
2023/05/28 08:07:47;;;;;;;15.75;10.93;;;;;;;;;;5052585;28;20040;-46
2023/05/28 08:10:14;;;;;;;15.10;10.00;;;;;;;;;;5052593;28;20037;-44
2023/05/28 08:12:41;;;;;;;15.18;10.20;;;;;;;;;;5052617;28;20028;-46
2023/05/28 08:15:09;;;;;;;14.48;10.20;;;;;;;;;;5052496;28;20040;-48
2023/05/28 08:17:36;;;;;;;15.95;10.15;;;;;;;;;;5052402;28;20037;-49
2023/05/28 08:20:05;;;;;;;14.00;9.82;;;;;;;;;;5052359;28;20124;-46
2023/05/28 08:22:32;;;;;;;12.88;8.90;;;;;;;;;;5052426;28;20491;-49
2023/05/28 08:24:59;;;;;;;13.70;9.63;;;;;;;;;;5052240;28;20491;-47
2023/05/28 08:27:26;;;;;;;15.60;9.20;;;;;;;;;;5052207;28;20124;-45
2023/05/28 08:29:53;;;;;;;13.10;9.20;;;;;;;;;;5052238;28;20513;-44
2023/05/28 08:32:20;;;;;;;15.18;9.35;;;;;;;;;;5051992;28;20021;-44
2023/05/28 08:34:47;;;;;;;12.88;8.65;;;;;;;;;;5052043;28;20029;-44
2023/05/28 08:37:15;;;;;;;13.13;9.07;;;;;;;;;;5051875;28;20061;-43
2023/05/28 08:39:42;;;;;;;13.13;9.10;;;;;;;;;;5052061;28;20138;-44
2023/05/28 08:42:09;;;;;;;14.63;8.57;;;;;;;;;;5051775;28;20430;-46
2023/05/28 08:44:36;;;;;;;12.82;8.50;;;;;;;;;;5052008;28;20021;-44
2023/05/28 08:47:03;;;;;;;14.13;8.98;;;;;;;;;;5051814;28;20072;-45
2023/05/28 08:49:38;;;;;;;13.82;8.60;;;;;;;;;;5051738;28;20049;-45
2023/05/28 08:52:06;;;;;;;12.32;8.70;;;;;;;;;;5051845;28;20037;-44
2023/05/28 08:54:33;;;;;;;14.50;7.85;;;;;;;;;;5051092;28;20020;-44
2023/05/28 08:57:00;;;;;;;10.88;8.07;;;;;;;;;;5051685;28;20445;-44
2023/05/28 08:59:27;;;;;;;10.02;7.60;;;;;;;;;;5051739;28;20357;-44
2023/05/28 09:01:54;;;;;;;10.88;7.65;;;;;;;;;;5051750;28;20063;-44
2023/05/28 09:04:21;;;;;;;10.73;7.80;;;;;;;;;;5051658;28;20045;-44
2023/05/28 09:06:51;;;;;;;10.27;7.25;;;;;;;;;;5051366;28;20033;-45
2023/05/28 09:09:18;;;;;;;10.10;7.13;;;;;;;;;;5051429;28;20491;-44
2023/05/28 09:11:45;;;;;;;10.50;7.10;;;;;;;;;;5051623;28;20395;-44
2023/05/28 09:14:13;;;;;;;11.20;7.55;;;;;;;;;;5051551;28;20032;-45
2023/05/28 09:16:41;;;;;;;10.43;7.53;;;;;;;;;;5051414;28;20025;-45
2023/05/28 09:19:08;;;;;;;9.77;6.95;;;;;;;;;;5051579;28;20028;-45
2023/05/28 09:21:39;;;;;;;11.13;7.47;;;;;;;;;;5051441;28;20036;-44
2023/05/28 09:24:06;;;;;;;10.13;6.90;;;;;;;;;;5051538;28;20055;-44
2023/05/28 09:26:33;;;;;;;9.25;6.50;;;;;;;;;;5051182;28;20491;-45
2023/05/28 09:29:01;;;;;;;10.02;6.30;;;;;;;;;;5051450;28;20052;-44
2023/05/28 09:31:34;;;;;;;9.15;6.78;;;;;;;;;;5051359;28;20487;-45
2023/05/28 09:34:02;;;;;;;9.35;6.70;;;;;;;;;;5051239;28;20033;-45
2023/05/28 09:36:30;;;;;;;10.98;6.82;;;;;;;;;;5051177;28;20029;-44
2023/05/28 09:38:57;;;;;;;7.90;6.10;;;;;;;;;;5051339;28;20032;-44
2023/05/28 09:41:25;;;;;;;8.30;5.88;;;;;;;;;;5051297;28;20059;-44
2023/05/28 09:43:59;;;;;;;10.05;6.40;;;;;;;;;;5051252;28;20031;-44
2023/05/28 09:46:36;;;;;;;8.00;5.75;;;;;;;;;;5033234;28;20073;-44
2023/05/28 09:49:04;;;;;;;8.05;5.60;;;;;;;;;;5050863;28;20056;-44
2023/05/28 09:51:32;;;;;;;8.68;5.60;;;;;;;;;;5051110;28;20029;-44
2023/05/28 09:54:00;;;;;;;8.32;5.55;;;;;;;;;;5051223;28;20035;-44
2023/05/28 09:56:31;;;;;;;10.10;5.65;;;;;;;;;;5051113;28;20082;-44
2023/05/28 09:58:59;;;;;;;7.82;5.68;;;;;;;;;;5051056;28;20032;-44
2023/05/28 10:01:31;;;;;;;7.90;5.47;;;;;;;;;;5051112;28;20095;-45
2023/05/28 10:04:13;;;;;;;8.02;5.22;;;;;;;;;;5051010;28;20044;-43
2023/05/28 10:06:43;;;;;;;6.43;5.03;;;;;;;;;;5053137;28;20029;-45
2023/05/28 10:09:13;;;;;;;7.35;5.10;;;;;;;;;;5054801;28;20056;-44
2023/05/28 10:11:43;;;;;;;8.40;5.13;;;;;;;;;;5054708;28;20017;-44
2023/05/28 10:14:11;;;;;;;8.15;5.20;;;;;;;;;;5036925;28;20459;-45
2023/05/28 10:16:38;;;;;;;8.38;5.32;;;;;;;;;;5054688;28;20064;-45
2023/05/28 10:19:05;;;;;;;7.20;4.95;;;;;;;;;;5054692;28;20017;-44
2023/05/28 10:21:33;;;;;;;6.53;4.68;;;;;;;;;;5054716;28;20033;-44
2023/05/28 10:24:00;;;;;;;7.22;4.68;;;;;;;;;;5054697;28;20031;-44
2023/05/28 10:26:27;;;;;;;6.30;4.40;;;;;;;;;;5054390;28;20033;-45
2023/05/28 10:28:55;;;;;;;7.57;4.65;;;;;;;;;;5054518;28;20021;-44
2023/05/28 10:31:22;;;;;;;5.30;4.13;;;;;;;;;;5054565;28;20021;-44
2023/05/28 10:33:50;;;;;;;5.47;4.30;;;;;;;;;;5054386;28;20478;-45
2023/05/28 10:36:18;;;;;;;6.30;4.07;;;;;;;;;;5054361;28;20025;-45
2023/05/28 10:38:54;;;;;;;6.35;4.35;;;;;;;;;;5054446;28;20021;-44
2023/05/28 10:41:25;;;;;;;7.35;4.22;;;;;;;;;;5054125;28;20716;-43
2023/05/28 10:43:52;;;;;;;5.75;4.32;;;;;;;;;;5054190;28;20032;-44
2023/05/28 10:46:25;;;;;;;6.95;4.28;;;;;;;;;;5054169;28;20079;-44
2023/05/28 10:49:12;;;;;;;5.47;3.72;;;;;;;;;;5054006;28;20060;-44
2023/05/28 10:51:52;;;;;;;4.75;3.80;;;;;;;;;;5054027;28;20021;-44
2023/05/28 10:54:26;;;;;;;4.75;3.63;;;;;;;;;;5053949;28;20036;-45
2023/05/28 10:57:10;;;;;;;5.50;3.80;;;;;;;;;;5054073;28;20025;-45
2023/05/28 10:59:40;;;;;;;5.72;3.65;;;;;;;;;;5053985;28;20025;-44
2023/05/28 11:02:07;;;;;;;5.07;3.58;;;;;;;;;;5054002;28;20025;-44
2023/05/28 11:04:35;;;;;;;4.28;3.50;;;;;;;;;;5053715;28;20021;-44
2023/05/28 11:07:03;;;;;;;5.22;3.38;;;;;;;;;;5053641;28;20044;-44
2023/05/28 11:09:30;;;;;;;5.03;3.60;;;;;;;;;;5053988;28;20029;-43
2023/05/28 11:12:01;;;;;;;5.55;3.67;;;;;;;;;;5053705;28;20187;-46
2023/05/28 11:14:36;;;;;;;4.85;3.45;;;;;;;;;;5053427;28;20032;-43
2023/05/28 11:17:07;;;;;;;4.32;3.22;;;;;;;;;;5053194;28;20033;-44
2023/05/28 11:19:40;;;;;;;7.03;3.40;;;;;;;;;;5053374;28;20088;-44
2023/05/28 11:22:07;;;;;;;4.07;3.30;;;;;;;;;;5053557;28;20053;-44
2023/05/28 11:24:49;;;;;;;4.78;3.13;;;;;;;;;;5053384;28;20021;-44
2023/05/28 11:27:16;;;;;;;5.25;3.22;;;;;;;;;;5053445;28;20028;-46
2023/05/28 11:29:43;;;;;;;4.35;3.08;;;;;;;;;;5035361;28;20499;-44
2023/05/28 11:32:10;;;;;;;4.93;3.42;;;;;;;;;;5053358;28;20021;-44
2023/05/28 11:34:40;;;;;;;4.57;3.38;;;;;;;;;;5053163;28;20025;-45
2023/05/28 11:37:07;;;;;;;5.03;3.13;;;;;;;;;;5053125;28;20765;-44
2023/05/28 11:39:35;;;;;;;4.20;2.90;;;;;;;;;;5053183;28;20114;-44
2023/05/28 11:42:02;;;;;;;4.57;2.67;;;;;;;;;;5053159;28;20029;-44
2023/05/28 11:44:29;;;;;;;3.70;2.67;;;;;;;;;;5053101;28;20021;-44
2023/05/28 11:46:57;;;;;;;3.95;2.53;;;;;;;;;;5052908;28;20033;-44
2023/05/28 11:49:24;;;;;;;3.33;2.63;;;;;;;;;;5052867;28;20072;-44
2023/05/28 11:51:52;;;;;;;3.88;2.70;;;;;;;;;;5052897;28;20029;-45
2023/05/28 11:54:19;;;;;;;4.03;2.70;;;;;;;;;;5052656;28;20044;-45
2023/05/28 11:56:49;;;;;;;3.47;2.30;;;;;;;;;;5053002;28;20104;-43
2023/05/28 11:59:17;;;;;;;3.50;2.50;;;;;;;;;;5052664;28;20025;-44
2023/05/28 12:01:44;;;;;;;4.38;2.30;;;;;;;;;;5052798;28;20029;-45
2023/05/28 12:04:11;;;;;;;3.38;2.22;;;;;;;;;;5052747;28;20025;-44
2023/05/28 12:06:51;;;;;;;3.42;2.40;;;;;;;;;;5052635;28;20033;-44
2023/05/28 12:09:18;;;;;;;2.70;2.10;;;;;;;;;;5052431;28;20129;-44
2023/05/28 12:11:45;;;;;;;2.90;2.15;;;;;;;;;;5052691;28;20529;-45
2023/05/28 12:14:15;;;;;;;3.15;2.38;;;;;;;;;;5052571;28;20028;-45
2023/05/28 12:16:48;;;;;;;2.80;2.05;;;;;;;;;;5052366;28;20025;-44
2023/05/28 12:19:16;;;;;;;3.08;2.03;;;;;;;;;;5052482;28;20045;-43
2023/05/28 12:21:43;;;;;;;2.50;2.00;;;;;;;;;;5052427;28;20027;-44
2023/05/28 12:24:16;;;;;;;2.30;1.90;;;;;;;;;;5052400;28;20025;-44
2023/05/28 12:26:43;;;;;;;2.90;2.05;;;;;;;;;;5052254;28;20033;-45
2023/05/28 12:29:10;;;;;;;2.08;1.63;;;;;;;;;;5052316;28;20053;-44
2023/05/28 12:31:37;;;;;;;2.40;1.70;;;;;;;;;;5034386;28;20025;-45
2023/05/28 12:34:05;;;;;;;2.42;1.80;;;;;;;;;;5052088;28;20029;-45
2023/05/28 12:36:32;;;;;;;2.58;2.00;;;;;;;;;;5052152;28;20020;-45
2023/05/28 12:38:59;;;;;;;3.97;1.70;;;;;;;;;;5051873;28;20108;-45
2023/05/28 12:41:26;;;;;;;2.50;1.80;;;;;;;;;;5051450;28;20029;-43
2023/05/28 12:43:53;;;;;;;2.70;1.58;;;;;;;;;;5051510;28;20043;-45
2023/05/28 12:46:20;;;;;;;3.22;1.70;;;;;;;;;;5049969;28;20021;-44
2023/05/28 12:48:47;;;;;;;5.45;1.40;;;;;;;;;;5051109;28;20060;-45
2023/05/28 12:51:15;;;;;;;4.72;1.67;;;;;;;;;;5051295;28;20029;-44
2023/05/28 12:53:42;;;;;;;2.83;1.58;;;;;;;;;;5066439;28;20024;-44
2023/05/28 12:56:10;;;;;;;6.55;1.63;;;;;;;;;;5051023;28;20029;-44
2023/05/28 12:58:36;;;;;;;2.53;1.38;;;;;;;;;;5050951;28;20471;-45
2023/05/28 13:01:03;;;;;;;3.72;1.30;;;;;;;;;;5065757;28;20360;-49
2023/05/28 13:03:32;;;;;;;2.70;1.60;;;;;;;;;;5048943;28;20029;-45
2023/05/28 13:05:59;;;;;;;4.40;1.40;;;;;;;;;;5050277;28;20060;-44
2023/05/28 13:08:26;;;;;;;3.38;1.40;;;;;;;;;;5049788;28;20087;-45
2023/05/28 13:10:55;;;;;;;2.22;1.40;;;;;;;;;;5049995;28;20491;-45
2023/05/28 13:13:22;;;;;;;3.33;1.52;;;;;;;;;;5050262;28;20083;-44
2023/05/28 13:15:49;;;;;;;3.47;1.58;;;;;;;;;;5050204;28;20422;-44
2023/05/28 13:18:16;;;;;;;3.85;1.50;;;;;;;;;;5050277;28;20475;-45
2023/05/28 13:20:43;;;;;;;2.70;1.30;;;;;;;;;;5050640;28;20049;-44
2023/05/28 13:23:10;;;;;;;2.00;1.10;;;;;;;;;;5051147;28;20036;-44
2023/05/28 13:25:37;;;;;;;6.75;1.50;;;;;;;;;;5050638;28;20051;-44
2023/05/28 13:28:05;;;;;;;2.67;1.15;;;;;;;;;;5049816;28;20390;-44
2023/05/28 13:30:32;;;;;;;1.77;1.10;;;;;;;;;;5050021;28;20509;-46
2023/05/28 13:32:59;;;;;;;4.35;1.15;;;;;;;;;;5050719;28;20075;-45
2023/05/28 13:35:26;;;;;;;2.85;1.08;;;;;;;;;;5050546;28;20113;-45
2023/05/28 13:37:55;;;;;;;2.35;1.10;;;;;;;;;;5050118;28;20506;-43
2023/05/28 13:40:24;;;;;;;4.65;1.10;;;;;;;;;;5048519;28;20553;-44
2023/05/28 13:42:51;;;;;;;11.63;1.30;;;;;;;;;;5036018;28;20037;-45
2023/05/28 13:45:18;;;;;;;8.30;1.20;;;;;;;;;;5053494;28;20033;-48
2023/05/28 13:47:45;;;;;;;12.23;1.33;;;;;;;;;;5053695;28;20033;-45
2023/05/28 13:50:14;;;;;;;7.72;1.25;;;;;;;;;;5053544;28;20053;-44
2023/05/28 13:52:41;;;;;;;13.88;1.60;;;;;;;;;;5046849;28;20040;-43
2023/05/28 13:55:08;;;;;;;10.68;1.30;;;;;;;;;;5052548;28;20025;-44
2023/05/28 13:57:35;;;;;;;11.68;1.40;;;;;;;;;;5045282;28;20033;-45
2023/05/28 14:00:08;;;;;;;18.63;1.50;;;;;;;;;;5036170;28;20543;-43
2023/05/28 14:02:35;;;;;;;18.27;1.60;;;;;;;;;;5054410;28;20395;-44
2023/05/28 14:05:02;;;;;;;26.27;2.10;;;;;;;;;;5047041;28;20057;-48
2023/05/28 14:07:29;;;;;;;16.10;1.88;;;;;;;;;;5042443;28;20112;-46
2023/05/28 14:09:56;;;;;;;16.45;1.98;;;;;;;;;;5049575;28;20029;-47
2023/05/28 14:12:23;;;;;;;35.25;2.42;;;;;;;;;;5054555;28;20029;-48
2023/05/28 14:14:50;;;;;;;12.50;1.85;;;;;;;;;;5054086;28;20025;-49
2023/05/28 14:17:17;;;;;;;12.13;2.00;;;;;;;;;;5054456;28;20031;-47
2023/05/28 14:19:44;;;;;;;18.20;2.00;;;;;;;;;;5053630;28;20032;-48
2023/05/28 14:22:11;;;;;;;16.25;2.10;;;;;;;;;;5050455;28;20029;-47
2023/05/28 14:24:38;;;;;;;37.08;2.65;;;;;;;;;;5051532;28;20071;-47
2023/05/28 14:27:06;;;;;;;16.40;2.47;;;;;;;;;;5034031;28;20041;-45
2023/05/28 14:29:33;;;;;;;24.98;2.83;;;;;;;;;;5038658;28;20103;-46
2023/05/28 14:32:00;;;;;;;19.35;2.60;;;;;;;;;;5033599;28;20020;-46